Tillman, South Carolina
Current Conditions -  °F | °C
As of 9:56 AM on Thursday 30 Oct 2014 (Local Time) from KNBC Reporting Station
Broken Clouds Broken Clouds  
Wind Chill: 63°   Ceiling: 25000
Heat Index: 63°   Visibility: 7mi
Dew Point: 59°   Wind: 8mph
Humidity: 87%   Direction: 40°NE
Pressure: 29.98"   Gusts: NA
Location:  32.46°N, 81.11°W
Report Text: KNBC 301356Z 04007KT 7SM FEW012 FEW100 BKN250 17/15 A2998 RMK AO2 SLP149 WND DATA ESTIMATED T01720150 $
Loading
Personal Weather Stations






























Interactive Weather Map
Tropical Storm Tracking
New forecast layout! Learn more

10-Day Weather Forecast

Advertisements
Track Severe Weather on mobile